Time;durP1;ratioP1;P1;durP2;ratioP2;P2;SDS_P1;SDS_P2;PMS_P1;PMS_P2;Temp;Humidity;BMP_temperature;BMP_pressure;BME280_temperature;BME280_humidity;BME280_pressure;Samples;Min_cycle;Max_cycle;Signal;HPM_P1;HPM_P2
2022/11/18 00:00:34;;;;;;;28.97;18.57;;;;;;;2.96;100.00;100325.09;4989788;28;20227;-71
2022/11/18 00:02:59;;;;;;;24.73;17.30;;;;;;;2.92;100.00;100329.94;4988604;28;20188;-70
2022/11/18 00:05:25;;;;;;;28.83;19.07;;;;;;;2.92;100.00;100324.91;4989630;28;20692;-74
2022/11/18 00:07:50;;;;;;;27.53;18.20;;;;;;;2.91;100.00;100336.69;4992921;28;20230;-73
2022/11/18 00:10:16;;;;;;;28.33;18.63;;;;;;;2.91;100.00;100334.16;4986981;28;20295;-71
2022/11/18 00:15:25;;;;;;;26.80;17.57;;;;;;;2.91;100.00;100326.59;4989959;28;20198;-74
2022/11/18 00:17:51;;;;;;;26.90;18.33;;;;;;;2.92;100.00;100335.00;4989656;28;20275;-73
2022/11/18 00:20:16;;;;;;;25.87;17.47;;;;;;;2.91;100.00;100335.81;4994450;28;20223;-71
2022/11/18 00:22:42;;;;;;;28.53;18.23;;;;;;;2.92;100.00;100337.53;4992221;28;20283;-73
2022/11/18 00:25:07;;;;;;;28.07;17.67;;;;;;;2.87;100.00;100339.91;4989139;28;20188;-72
2022/11/18 00:27:33;;;;;;;27.73;17.97;;;;;;;2.85;100.00;100338.94;4987356;28;20188;-72
2022/11/18 00:29:58;;;;;;;28.30;18.13;;;;;;;2.83;100.00;100335.50;4986908;28;20816;-73
2022/11/18 00:32:24;;;;;;;26.80;17.47;;;;;;;2.85;100.00;100340.63;4985242;28;20282;-71
2022/11/18 00:34:49;;;;;;;26.93;17.63;;;;;;;2.82;100.00;100350.59;5001761;28;20187;-73
2022/11/18 00:37:14;;;;;;;27.27;18.63;;;;;;;2.84;100.00;100352.41;4993222;28;20214;-73
2022/11/18 00:39:40;;;;;;;25.80;17.30;;;;;;;2.74;100.00;100347.75;4993252;28;20211;-72
2022/11/18 00:44:50;;;;;;;30.00;18.47;;;;;;;2.72;100.00;100361.97;4991015;28;20244;-71
2022/11/18 00:47:15;;;;;;;28.53;17.90;;;;;;;2.71;100.00;100359.41;4990394;28;20629;-72
2022/11/18 00:49:41;;;;;;;28.73;17.23;;;;;;;2.66;100.00;100354.16;4987335;28;20192;-72
2022/11/18 00:52:06;;;;;;;26.17;17.53;;;;;;;2.68;100.00;100359.28;4988010;28;20216;-73
2022/11/18 00:54:32;;;;;;;26.40;16.80;;;;;;;2.66;100.00;100361.72;4984138;28;20211;-73
2022/11/18 00:56:57;;;;;;;27.77;17.97;;;;;;;2.61;100.00;100363.19;4992463;28;20184;-74
2022/11/18 00:59:23;;;;;;;28.37;18.50;;;;;;;2.62;100.00;100371.66;4992358;28;20895;-73
2022/11/18 01:01:48;;;;;;;27.33;17.43;;;;;;;2.60;100.00;100365.66;4990281;28;20211;-73
2022/11/18 01:04:14;;;;;;;26.57;17.93;;;;;;;2.64;100.00;100367.50;4989733;28;20222;-72
2022/11/18 01:06:39;;;;;;;27.53;17.47;;;;;;;2.61;100.00;100373.31;4986637;28;20343;-73
2022/11/18 01:09:05;;;;;;;29.07;18.03;;;;;;;2.59;100.00;100374.91;4987637;28;20187;-74
2022/11/18 01:14:14;;;;;;;27.80;18.17;;;;;;;2.58;100.00;100375.69;4984222;28;20283;-74
2022/11/18 01:16:40;;;;;;;29.63;18.10;;;;;;;2.55;100.00;100383.16;4991157;28;20290;-71
2022/11/18 01:19:05;;;;;;;30.23;19.10;;;;;;;2.51;100.00;100378.75;4988747;28;20234;-75
2022/11/18 01:21:31;;;;;;;29.10;19.33;;;;;;;2.52;100.00;100377.13;4997046;28;20207;-74
2022/11/18 01:23:57;;;;;;;32.23;21.17;;;;;;;2.52;100.00;100377.13;4988946;28;20204;-74
2022/11/18 01:26:23;;;;;;;28.33;18.43;;;;;;;2.52;100.00;100379.66;4986700;28;20258;-74
2022/11/18 01:28:48;;;;;;;30.40;18.80;;;;;;;2.56;100.00;100389.06;4988757;28;20196;-73
2022/11/18 01:31:17;;;;;;;31.80;18.43;;;;;;;2.55;100.00;100382.28;4987062;28;20215;-74
2022/11/18 01:33:44;;;;;;;27.73;18.03;;;;;;;2.56;100.00;100384.88;4997363;28;20226;-71
2022/11/18 01:36:23;;;;;;;30.23;19.30;;;;;;;2.58;100.00;100384.94;4991583;28;20184;-73
2022/11/18 01:38:49;;;;;;;25.97;17.93;;;;;;;2.56;100.00;100384.00;4976735;28;20678;-74
2022/11/18 01:41:16;;;;;;;32.30;19.57;;;;;;;2.56;100.00;100384.00;4991186;28;20250;-74
2022/11/18 01:43:54;;;;;;;31.27;19.60;;;;;;;2.54;100.00;100383.97;4988856;28;20192;-71
2022/11/18 01:46:20;;;;;;;30.90;18.47;;;;;;;2.54;100.00;100385.63;4988530;28;20250;-73
2022/11/18 01:48:51;;;;;;;32.23;19.67;;;;;;;2.53;100.00;100389.78;4988195;28;20184;-72
2022/11/18 01:51:21;;;;;;;30.83;19.90;;;;;;;2.55;100.00;100389.84;4992238;28;20218;-73
2022/11/18 01:53:52;;;;;;;28.80;18.87;;;;;;;2.52;100.00;100392.28;4989633;28;20218;-73
2022/11/18 01:56:24;;;;;;;33.07;20.90;;;;;;;2.49;100.00;100395.50;4991361;28;20183;-73
2022/11/18 01:58:52;;;;;;;31.07;19.57;;;;;;;2.47;100.00;100402.16;4991798;28;20191;-73
2022/11/18 02:01:18;;;;;;;30.20;19.43;;;;;;;2.48;100.00;100398.84;4990947;28;20632;-72
2022/11/18 02:03:45;;;;;;;30.37;19.67;;;;;;;2.45;100.00;100408.81;4978012;28;20183;-73
2022/11/18 02:06:12;;;;;;;33.90;20.47;;;;;;;2.50;100.00;100406.47;4987775;28;20189;-73
2022/11/18 02:08:39;;;;;;;32.13;20.53;;;;;;;2.49;100.00;100415.72;5006418;28;20608;-73
2022/11/18 02:11:08;;;;;;;34.43;22.00;;;;;;;2.48;100.00;100413.16;4991270;28;20208;-75
2022/11/18 02:13:34;;;;;;;34.57;21.77;;;;;;;2.47;100.00;100419.84;4989768;28;20235;-74
2022/11/18 02:15:59;;;;;;;36.03;22.20;;;;;;;2.45;100.00;100423.09;4991466;28;20696;-73
2022/11/18 02:18:59;;;;;;;32.50;22.00;;;;;;;2.40;100.00;100405.22;4991342;28;20202;-72
2022/11/18 02:21:56;;;;;;;33.20;21.60;;;;;;;2.40;100.00;100420.38;4991220;28;20223;-74
2022/11/18 02:24:42;;;;;;;33.47;22.03;;;;;;;2.46;100.00;100410.53;4991449;28;20203;-74
2022/11/18 02:27:35;;;;;;;33.40;22.07;;;;;;;2.38;100.00;100410.97;4988384;28;20194;-74
2022/11/18 02:30:07;;;;;;;35.43;22.23;;;;;;;2.39;100.00;100413.59;4990140;28;20215;-72
2022/11/18 02:32:42;;;;;;;35.40;22.93;;;;;;;2.38;100.00;100418.56;4990953;28;20231;-74
2022/11/18 02:35:12;;;;;;;37.03;23.73;;;;;;;2.35;100.00;100416.75;4991128;28;20190;-75
2022/11/18 02:37:49;;;;;;;38.03;22.90;;;;;;;2.33;100.00;100425.94;4990704;28;20634;-71
2022/11/18 02:40:24;;;;;;;37.67;24.07;;;;;;;2.31;100.00;100419.09;4987503;28;20207;-72
2022/11/18 02:42:55;;;;;;;35.63;23.33;;;;;;;2.28;100.00;100427.41;4989964;28;20195;-72
2022/11/18 02:45:22;;;;;;;38.90;25.10;;;;;;;2.29;100.00;100425.75;4989711;28;20299;-73
2022/11/18 02:47:49;;;;;;;36.47;23.80;;;;;;;2.30;100.00;100425.81;4990740;28;20218;-71
2022/11/18 02:50:21;;;;;;;36.80;23.40;;;;;;;2.28;100.00;100429.94;4990914;28;20211;-73
2022/11/18 02:52:52;;;;;;;37.90;24.53;;;;;;;2.32;100.00;100425.88;4991015;28;20223;-72
2022/11/18 02:55:20;;;;;;;32.73;21.10;;;;;;;2.31;100.00;100426.69;4990282;28;20286;-73
2022/11/18 02:57:46;;;;;;;36.50;23.33;;;;;;;2.26;100.00;100431.50;4990715;28;20262;-73
2022/11/18 03:00:12;;;;;;;38.03;24.40;;;;;;;2.30;100.00;100438.44;4990780;28;20207;-70
2022/11/18 03:02:44;;;;;;;35.43;23.60;;;;;;;2.24;100.00;100435.63;4989435;28;20279;-71
2022/11/18 03:05:18;;;;;;;35.13;22.53;;;;;;;2.27;100.00;100442.47;4987377;28;20219;-74
2022/11/18 03:07:50;;;;;;;34.33;22.90;;;;;;;2.25;100.00;100449.13;4990284;28;20198;-73
2022/11/18 03:10:18;;;;;;;34.93;23.33;;;;;;;2.25;100.00;100444.09;4990575;28;20307;-74
2022/11/18 03:13:01;;;;;;;35.67;24.17;;;;;;;2.18;99.97;100444.59;4990527;28;20242;-72
2022/11/18 03:15:37;;;;;;;33.57;22.90;;;;;;;2.18;100.00;100447.13;4987947;28;20755;-72
2022/11/18 03:18:27;;;;;;;35.37;23.03;;;;;;;2.13;100.00;100444.41;4993647;28;20677;-74
2022/11/18 03:20:59;;;;;;;38.20;23.37;;;;;;;2.11;100.00;100455.22;4986240;28;20310;-73
2022/11/18 03:23:37;;;;;;;35.63;23.27;;;;;;;2.15;100.00;100454.56;4985109;28;20199;-72
2022/11/18 03:26:08;;;;;;;37.07;23.20;;;;;;;2.17;100.00;100456.38;4985370;28;20179;-73
2022/11/18 03:28:49;;;;;;;33.70;22.13;;;;;;;2.17;99.87;100458.91;4987201;28;20196;-73
2022/11/18 03:31:28;;;;;;;36.90;23.40;;;;;;;2.16;100.00;100459.66;4989009;28;20207;-73
2022/11/18 03:34:02;;;;;;;33.37;21.93;;;;;;;2.19;100.00;100469.03;4989042;28;20258;-73
2022/11/18 03:36:34;;;;;;;38.60;25.20;;;;;;;2.22;100.00;100469.19;4985328;28;20973;-73
2022/11/18 03:39:02;;;;;;;36.40;23.37;;;;;;;2.16;100.00;100463.88;4986666;28;20258;-72
2022/11/18 03:41:31;;;;;;;34.70;22.83;;;;;;;2.18;100.00;100472.38;4984268;28;20212;-72
2022/11/18 03:44:15;;;;;;;35.67;22.67;;;;;;;2.18;100.00;100475.75;4983611;28;20255;-72
2022/11/18 03:46:48;;;;;;;33.03;22.37;;;;;;;2.23;100.00;100471.78;4979499;28;20654;-72
2022/11/18 03:49:26;;;;;;;33.10;21.60;;;;;;;2.21;99.84;100475.03;4989430;28;20270;-71
2022/11/18 03:51:57;;;;;;;34.57;21.47;;;;;;;2.22;99.83;100475.13;4986497;28;20598;-73
2022/11/18 03:54:26;;;;;;;33.03;22.50;;;;;;;2.24;100.00;100472.63;4987802;28;20188;-73
2022/11/18 03:57:15;;;;;;;29.90;19.57;;;;;;;2.22;100.00;100476.75;4985018;28;20784;-74
2022/11/18 03:59:56;;;;;;;29.77;21.00;;;;;;;2.19;100.00;100485.06;4984013;28;20211;-73
2022/11/18 04:02:26;;;;;;;30.63;20.03;;;;;;;2.16;100.00;100484.91;4983784;28;20182;-72
2022/11/18 04:04:56;;;;;;;30.90;20.77;;;;;;;2.16;99.81;100484.06;4986734;28;20681;-72
2022/11/18 04:07:52;;;;;;;29.27;20.70;;;;;;;2.16;99.47;100481.53;4983059;28;20203;-73
2022/11/18 04:10:24;;;;;;;29.67;21.20;;;;;;;2.17;100.00;100488.31;4990901;28;20688;-73
2022/11/18 04:13:03;;;;;;;30.63;20.67;;;;;;;2.13;99.77;100501.59;4990678;28;20305;-72
2022/11/18 04:15:30;;;;;;;30.77;20.37;;;;;;;2.20;100.00;100503.63;4989058;28;20191;-72
2022/11/18 04:17:56;;;;;;;32.23;21.57;;;;;;;2.19;100.00;100505.25;5004495;28;20193;-72
2022/11/18 04:20:22;;;;;;;28.83;20.30;;;;;;;2.21;100.00;100501.13;4989441;28;20559;-73
2022/11/18 04:22:48;;;;;;;31.77;21.37;;;;;;;2.20;100.00;100509.50;4986265;28;20292;-73
2022/11/18 04:25:13;;;;;;;30.33;20.23;;;;;;;2.17;100.00;100511.03;4988230;28;20669;-72
2022/11/18 04:27:39;;;;;;;29.57;19.97;;;;;;;2.16;100.00;100510.16;4986794;28;20195;-73
2022/11/18 04:30:06;;;;;;;31.80;20.90;;;;;;;2.16;100.00;100516.88;4992855;28;20735;-72
2022/11/18 04:32:31;;;;;;;31.43;20.93;;;;;;;2.13;100.00;100522.66;4992768;28;20239;-71
2022/11/18 04:34:57;;;;;;;31.73;21.23;;;;;;;2.13;100.00;100515.09;4992047;28;20685;-72
2022/11/18 04:37:22;;;;;;;31.47;20.90;;;;;;;2.12;99.89;100520.06;4990733;28;20404;-71
2022/11/18 04:39:48;;;;;;;33.03;21.67;;;;;;;2.13;99.65;100519.25;4988301;28;20335;-72
2022/11/18 04:42:13;;;;;;;31.60;20.30;;;;;;;2.13;99.92;100524.31;4986279;28;20220;-72
2022/11/18 04:44:39;;;;;;;32.77;21.70;;;;;;;2.13;100.00;100524.31;4985617;28;20363;-72
2022/11/18 04:47:05;;;;;;;33.33;22.20;;;;;;;2.12;100.00;100520.91;4993010;28;20200;-72
2022/11/18 04:49:32;;;;;;;30.63;21.40;;;;;;;2.11;100.00;100525.91;4993329;28;20253;-72
2022/11/18 04:51:58;;;;;;;31.17;22.30;;;;;;;2.04;100.00;100527.28;4993140;28;20554;-73
2022/11/18 04:54:25;;;;;;;30.97;21.63;;;;;;;2.04;99.88;100532.31;4992294;28;20192;-71
2022/11/18 04:56:51;;;;;;;32.17;22.03;;;;;;;2.03;100.00;100532.25;4990587;28;20204;-72
2022/11/18 04:59:19;;;;;;;30.20;21.70;;;;;;;2.05;100.00;100536.56;4989938;28;20192;-72
2022/11/18 05:01:45;;;;;;;31.83;21.47;;;;;;;2.03;100.00;100542.34;4992816;28;20216;-72
2022/11/18 05:04:16;;;;;;;33.80;22.10;;;;;;;2.05;99.57;100544.16;4992792;28;20186;-73
2022/11/18 05:06:41;;;;;;;33.53;21.83;;;;;;;2.05;99.45;100546.66;4991639;28;20215;-73
2022/11/18 05:09:07;;;;;;;34.13;22.10;;;;;;;2.04;99.67;100549.13;4992598;28;20652;-72
2022/11/18 05:14:16;;;;;;;34.20;22.33;;;;;;;2.02;99.48;100553.25;4992273;28;20680;-72
2022/11/18 05:16:42;;;;;;;35.07;23.10;;;;;;;1.99;99.91;100550.56;4991376;28;20196;-74
2022/11/18 05:19:07;;;;;;;33.50;22.17;;;;;;;2.02;100.00;100565.88;4991363;28;20267;-70
2022/11/18 05:21:33;;;;;;;33.17;22.37;;;;;;;2.04;99.56;100566.78;4992210;28;20211;-71
2022/11/18 05:23:59;;;;;;;33.23;22.10;;;;;;;1.96;99.77;100574.00;4992593;28;20223;-72
2022/11/18 05:26:25;;;;;;;34.13;22.90;;;;;;;2.02;100.00;100574.28;4991016;28;20830;-73
2022/11/18 05:28:50;;;;;;;34.33;23.20;;;;;;;1.99;99.87;100571.63;4991921;28;20196;-73
2022/11/18 05:31:16;;;;;;;34.60;23.80;;;;;;;2.00;100.00;100578.41;4992301;28;20210;-72
2022/11/18 05:33:43;;;;;;;33.93;22.77;;;;;;;2.01;100.00;100577.59;4991639;28;20208;-72
2022/11/18 05:36:11;;;;;;;34.63;24.40;;;;;;;2.00;100.00;100580.94;4991361;28;20200;-72
2022/11/18 05:38:37;;;;;;;37.97;23.20;;;;;;;1.97;100.00;100584.97;4992217;28;20784;-73
2022/11/18 05:41:03;;;;;;;31.20;22.17;;;;;;;1.96;99.85;100579.03;4992262;28;20212;-72
2022/11/18 05:43:29;;;;;;;33.07;22.87;;;;;;;1.94;100.00;100589.84;4992126;28;20234;-73
2022/11/18 05:45:54;;;;;;;33.77;23.50;;;;;;;1.92;100.00;100594.81;4992144;28;20188;-72
2022/11/18 05:48:20;;;;;;;35.27;23.83;;;;;;;1.91;100.00;100597.28;4991999;28;20803;-73
2022/11/18 05:50:47;;;;;;;34.70;24.23;;;;;;;1.90;100.00;100598.06;4990361;28;20578;-74
2022/11/18 05:53:13;;;;;;;34.47;24.47;;;;;;;1.90;99.63;100603.13;4986969;28;20223;-73
2022/11/18 05:55:52;;;;;;;38.10;24.37;;;;;;;1.88;99.93;100608.06;4986262;28;20200;-73
2022/11/18 05:58:18;;;;;;;35.67;25.03;;;;;;;1.83;100.00;100607.00;4989506;28;20215;-74
2022/11/18 06:00:46;;;;;;;37.80;25.77;;;;;;;1.83;99.18;100607.00;4991550;28;20289;-73
2022/11/18 06:03:25;;;;;;;39.43;25.70;;;;;;;1.85;100.00;100613.00;4991347;28;20187;-75
2022/11/18 06:05:53;;;;;;;35.70;24.27;;;;;;;1.84;99.87;100617.97;4990924;28;20202;-74
2022/11/18 06:08:22;;;;;;;36.70;24.97;;;;;;;1.77;99.80;100619.31;4975614;28;20238;-72
2022/11/18 06:10:49;;;;;;;37.73;25.50;;;;;;;2.19;100.00;100618.00;4987392;28;20215;-72
2022/11/18 06:13:28;;;;;;;37.37;25.07;;;;;;;2.36;100.00;100619.69;4986780;28;20595;-71
2022/11/18 06:15:53;;;;;;;37.83;24.80;;;;;;;2.36;100.00;100622.22;4988786;28;20199;-70
2022/11/18 06:18:27;;;;;;;40.00;24.33;;;;;;;2.06;100.00;100630.84;4987220;28;20190;-73
2022/11/18 06:20:59;;;;;;;36.77;24.00;;;;;;;1.95;100.00;100635.38;4990556;28;20226;-72
2022/11/18 06:23:27;;;;;;;35.50;25.63;;;;;;;1.97;99.14;100637.97;4991142;28;20187;-74
2022/11/18 06:25:53;;;;;;;35.37;24.17;;;;;;;1.93;98.91;100641.13;4989366;28;20574;-72
2022/11/18 06:28:20;;;;;;;35.80;25.03;;;;;;;1.84;99.03;100645.72;4988837;28;20199;-71
2022/11/18 06:30:46;;;;;;;38.47;24.53;;;;;;;1.84;99.12;100654.13;4985199;28;20216;-72
2022/11/18 06:33:11;;;;;;;36.00;24.27;;;;;;;1.78;99.31;100650.44;4985038;28;20222;-72
2022/11/18 06:35:36;;;;;;;35.83;24.67;;;;;;;1.72;98.45;100651.00;4982442;28;20334;-73
2022/11/18 06:38:02;;;;;;;38.17;24.90;;;;;;;1.76;98.53;100647.88;4983635;28;20188;-72
2022/11/18 06:40:27;;;;;;;40.47;26.73;;;;;;;1.70;99.19;100652.56;4982472;28;20806;-74
2022/11/18 06:45:37;;;;;;;39.80;25.43;;;;;;;1.70;99.19;100672.75;4985883;28;20199;-74
2022/11/18 06:48:03;;;;;;;38.33;24.97;;;;;;;1.67;99.68;100667.59;4987054;28;20415;-71
2022/11/18 06:50:29;;;;;;;38.60;24.70;;;;;;;1.67;98.70;100672.63;4986179;28;20211;-72
2022/11/18 06:52:55;;;;;;;40.47;26.07;;;;;;;1.68;99.04;100673.47;4984198;28;20586;-69
2022/11/18 06:55:20;;;;;;;39.87;25.17;;;;;;;1.64;98.49;100676.63;4984647;28;20657;-70
2022/11/18 06:57:46;;;;;;;38.40;25.87;;;;;;;1.61;98.51;100677.34;4985726;28;20198;-72
2022/11/18 07:00:12;;;;;;;39.70;25.57;;;;;;;1.63;99.05;100675.78;4965381;28;20211;-72
2022/11/18 07:02:38;;;;;;;35.27;24.27;;;;;;;1.62;99.21;100675.69;4986610;28;20188;-72
2022/11/18 07:05:04;;;;;;;41.10;26.20;;;;;;;1.63;99.03;100682.47;4988086;28;20669;-69
2022/11/18 07:07:29;;;;;;;38.10;25.07;;;;;;;1.58;98.81;100686.41;4987847;28;20915;-71
2022/11/18 07:09:55;;;;;;;41.40;26.47;;;;;;;1.57;98.25;100695.66;4973965;28;20239;-70
2022/11/18 07:12:20;;;;;;;39.23;25.57;;;;;;;1.55;98.08;100699.72;4986185;28;20295;-73
2022/11/18 07:14:46;;;;;;;41.93;25.53;;;;;;;1.54;98.17;100698.00;4982777;28;20187;-72
2022/11/18 07:17:12;;;;;;;41.87;27.23;;;;;;;1.54;98.51;100699.66;4987328;28;20283;-74
2022/11/18 07:19:38;;;;;;;43.07;26.80;;;;;;;1.56;98.91;100708.19;4980271;28;20224;-74
2022/11/18 07:22:04;;;;;;;41.30;26.37;;;;;;;1.55;98.24;100709.81;4989255;28;20191;-73
2022/11/18 07:24:29;;;;;;;39.93;26.63;;;;;;;1.57;99.38;100710.78;4989597;28;20202;-73
2022/11/18 07:26:55;;;;;;;38.70;24.30;;;;;;;1.55;98.76;100706.41;4988041;28;20196;-72
2022/11/18 07:29:20;;;;;;;40.70;26.17;;;;;;;1.58;98.13;100711.63;4987366;28;20547;-72
2022/11/18 07:31:45;;;;;;;39.17;25.47;;;;;;;1.64;98.53;100717.88;4984672;28;20291;-74
2022/11/18 07:34:12;;;;;;;38.67;25.50;;;;;;;1.64;98.62;100725.44;4986128;28;20300;-72
2022/11/18 07:36:37;;;;;;;39.07;25.73;;;;;;;1.68;98.77;100718.88;4982191;28;20923;-72
2022/11/18 07:39:05;;;;;;;39.37;25.53;;;;;;;1.64;99.02;100722.03;4983371;28;20194;-74
2022/11/18 07:41:31;;;;;;;35.10;23.17;;;;;;;1.55;97.74;100724.97;4987890;28;20242;-73
2022/11/18 07:43:58;;;;;;;37.10;23.23;;;;;;;1.54;98.59;100733.31;4989020;28;20628;-73
2022/11/18 07:46:32;;;;;;;38.13;25.37;;;;;;;1.52;97.06;100731.50;4988876;28;20669;-73
2022/11/18 07:49:00;;;;;;;35.43;23.97;;;;;;;1.53;97.11;100748.38;4987074;28;20198;-72
2022/11/18 07:51:28;;;;;;;37.13;24.07;;;;;;;1.55;98.08;100744.25;4986811;28;20345;-73
2022/11/18 07:53:53;;;;;;;36.27;24.07;;;;;;;1.54;97.83;100745.94;4984612;28;20246;-74
2022/11/18 07:56:19;;;;;;;35.00;22.83;;;;;;;1.57;97.83;100750.25;4985559;28;20665;-72
2022/11/18 07:58:45;;;;;;;38.20;24.63;;;;;;;1.56;97.65;100751.06;4981756;28;20215;-72
2022/11/18 08:01:12;;;;;;;35.03;23.57;;;;;;;1.59;97.65;100764.69;4989302;28;20307;-73
2022/11/18 08:03:38;;;;;;;35.30;22.60;;;;;;;1.51;97.14;100762.56;4984809;28;20658;-73
2022/11/18 08:06:05;;;;;;;34.10;22.57;;;;;;;1.52;96.46;100769.34;4977788;28;20734;-74
2022/11/18 08:08:31;;;;;;;34.33;23.43;;;;;;;1.54;97.52;100767.75;4973004;28;20224;-72
2022/11/18 08:10:58;;;;;;;33.33;22.87;;;;;;;1.53;96.66;100771.94;4988756;28;20904;-73
2022/11/18 08:13:25;;;;;;;33.57;22.97;;;;;;;1.53;97.33;100782.03;4988819;28;20751;-73
2022/11/18 08:15:51;;;;;;;32.73;22.80;;;;;;;1.55;96.40;100777.03;4989141;28;20210;-73
2022/11/18 08:18:17;;;;;;;31.23;21.27;;;;;;;1.49;96.66;100776.72;4989360;28;20202;-73
2022/11/18 08:20:44;;;;;;;34.20;22.50;;;;;;;1.43;96.45;100789.03;4977094;28;20239;-72
2022/11/18 08:23:10;;;;;;;31.20;21.63;;;;;;;1.42;95.90;100789.81;4984315;28;20262;-72
2022/11/18 08:25:35;;;;;;;32.70;21.63;;;;;;;1.44;96.04;100796.66;4988606;28;20196;-72
2022/11/18 08:28:01;;;;;;;33.23;21.80;;;;;;;1.48;95.40;100800.22;4988317;28;20196;-73
2022/11/18 08:30:26;;;;;;;33.33;21.63;;;;;;;1.50;95.55;100791.06;4987448;28;20212;-72
2022/11/18 08:32:52;;;;;;;32.37;21.93;;;;;;;1.51;96.23;100793.69;4987966;28;20208;-71
2022/11/18 08:35:17;;;;;;;31.90;20.90;;;;;;;1.59;95.98;100792.44;4988719;28;20824;-71
2022/11/18 08:37:43;;;;;;;33.43;21.70;;;;;;;1.57;95.30;100795.66;4988794;28;20242;-72
2022/11/18 08:40:08;;;;;;;29.20;21.47;;;;;;;1.59;95.67;100801.66;4988153;28;20222;-71
2022/11/18 08:42:34;;;;;;;30.07;21.43;;;;;;;1.63;94.56;100799.41;4988526;28;20184;-72
2022/11/18 08:44:59;;;;;;;30.00;21.27;;;;;;;1.67;95.30;100803.81;4987312;28;20238;-71
2022/11/18 08:47:25;;;;;;;30.63;20.27;;;;;;;1.73;94.40;100808.31;4985841;28;20200;-71
2022/11/18 08:49:50;;;;;;;32.10;22.10;;;;;;;1.78;95.30;100799.31;4988062;28;20220;-74
2022/11/18 08:52:15;;;;;;;31.73;21.20;;;;;;;1.77;94.77;100810.22;4989329;28;20208;-74
2022/11/18 08:54:41;;;;;;;31.00;22.13;;;;;;;1.75;93.77;100810.13;4991615;28;20188;-73
2022/11/18 08:57:07;;;;;;;28.63;20.27;;;;;;;1.81;94.26;100810.47;4993085;28;20191;-73
2022/11/18 08:59:32;;;;;;;29.33;21.03;;;;;;;1.89;93.72;100820.97;4992385;28;20188;-72
2022/11/18 09:01:58;;;;;;;28.70;20.77;;;;;;;1.91;92.92;100825.31;4991664;28;20211;-73
2022/11/18 09:04:23;;;;;;;32.13;20.93;;;;;;;1.93;93.01;100826.25;4991909;28;20233;-69
2022/11/18 09:06:48;;;;;;;32.63;21.33;;;;;;;1.98;92.50;100834.91;4990037;28;20223;-72
2022/11/18 09:09:14;;;;;;;28.83;20.50;;;;;;;1.90;91.42;100830.25;4975521;28;20933;-73
2022/11/18 09:11:40;;;;;;;30.23;20.27;;;;;;;1.87;91.28;100833.50;4987856;28;20585;-72
2022/11/18 09:14:05;;;;;;;25.90;19.50;;;;;;;1.85;90.69;100836.72;4991245;28;20299;-73
2022/11/18 09:16:33;;;;;;;30.67;21.00;;;;;;;1.87;91.24;100837.66;4991912;28;20211;-71
2022/11/18 09:18:59;;;;;;;29.13;20.83;;;;;;;1.86;90.81;100846.91;4990561;28;20191;-72
2022/11/18 09:21:26;;;;;;;27.70;20.47;;;;;;;1.92;91.23;100846.38;4989831;28;20592;-72
2022/11/18 09:23:51;;;;;;;27.60;20.10;;;;;;;1.92;91.63;100847.22;4988006;28;20193;-73
2022/11/18 09:26:25;;;;;;;27.67;20.10;;;;;;;1.91;90.67;100853.06;4988470;28;20670;-74
2022/11/18 09:28:53;;;;;;;26.67;19.60;;;;;;;1.94;91.11;100847.31;4986063;28;20200;-73
2022/11/18 09:31:19;;;;;;;28.77;20.17;;;;;;;1.96;90.01;100856.72;4984877;28;20816;-74
2022/11/18 09:33:44;;;;;;;28.93;18.90;;;;;;;2.00;89.78;100855.19;4989860;28;20310;-74
2022/11/18 09:36:14;;;;;;;29.30;20.67;;;;;;;2.01;90.82;100859.47;4991990;28;20234;-71
2022/11/18 09:38:40;;;;;;;29.37;20.43;;;;;;;1.97;90.21;100862.63;4990212;28;20196;-73
2022/11/18 09:41:08;;;;;;;29.70;20.23;;;;;;;2.05;89.97;100872.34;4990135;28;20678;-73
2022/11/18 09:44:04;;;;;;;27.20;19.40;;;;;;;2.07;90.29;100874.94;4986621;28;20219;-73
2022/11/18 09:46:45;;;;;;;28.53;20.33;;;;;;;2.15;91.21;100873.72;4985727;28;20202;-73
2022/11/18 09:49:15;;;;;;;28.17;19.37;;;;;;;2.04;89.40;100879.81;4983907;28;20211;-72
2022/11/18 09:51:45;;;;;;;27.73;19.70;;;;;;;2.08;89.23;100882.63;4985016;28;20215;-71
2022/11/18 09:54:33;;;;;;;26.50;19.33;;;;;;;2.12;88.61;100891.22;4983625;28;20227;-71
2022/11/18 09:56:59;;;;;;;27.87;19.53;;;;;;;2.07;89.21;100882.53;5005470;28;20223;-72
2022/11/18 09:59:27;;;;;;;25.00;18.10;;;;;;;2.05;87.91;100881.56;4972183;28;20227;-72
2022/11/18 10:01:57;;;;;;;26.37;19.23;;;;;;;2.13;88.69;100893.81;4986877;28;20247;-72
2022/11/18 10:04:22;;;;;;;26.90;19.23;;;;;;;2.07;88.48;100890.94;4984853;28;20184;-74
2022/11/18 10:06:49;;;;;;;25.67;18.53;;;;;;;2.10;88.28;100890.25;4984892;28;20250;-73
2022/11/18 10:09:24;;;;;;;28.27;19.83;;;;;;;2.12;88.55;100896.25;4968535;28;20303;-73
2022/11/18 10:12:21;;;;;;;25.80;18.23;;;;;;;2.11;87.81;100899.59;4982656;28;20245;-72
2022/11/18 10:14:59;;;;;;;24.77;17.10;;;;;;;2.09;87.34;100908.72;4988918;28;20285;-74
2022/11/18 10:17:38;;;;;;;23.53;17.03;;;;;;;2.02;85.85;100912.56;4990703;28;20199;-73
2022/11/18 10:20:29;;;;;;;21.87;16.00;;;;;;;2.09;86.13;100917.16;4989352;28;20809;-72
2022/11/18 10:23:06;;;;;;;22.10;16.13;;;;;;;2.17;85.82;100922.63;4971482;28;20201;-74
2022/11/18 10:25:32;;;;;;;23.57;15.73;;;;;;;2.22;87.39;100932.19;4985976;28;20203;-73
2022/11/18 10:28:14;;;;;;;22.87;15.03;;;;;;;2.25;86.79;100929.81;4985377;28;20200;-72
2022/11/18 10:30:39;;;;;;;21.17;15.33;;;;;;;2.26;85.88;100923.97;4982723;28;20204;-72
2022/11/18 10:33:20;;;;;;;19.07;14.33;;;;;;;2.23;85.90;100926.34;4990909;28;20731;-72
2022/11/18 10:35:46;;;;;;;19.87;13.83;;;;;;;2.26;86.02;100928.16;4988193;28;20191;-74
2022/11/18 10:38:11;;;;;;;17.77;13.60;;;;;;;2.28;85.16;100935.03;4990367;28;20958;-74
2022/11/18 10:40:42;;;;;;;17.63;12.77;;;;;;;2.29;85.17;100935.91;4989303;28;20246;-73
2022/11/18 10:43:09;;;;;;;17.20;12.77;;;;;;;2.32;84.62;100928.47;4985955;28;20188;-72
2022/11/18 10:45:35;;;;;;;16.27;12.20;;;;;;;2.41;84.20;100924.78;4986647;28;20187;-72
2022/11/18 10:48:14;;;;;;;16.33;12.37;;;;;;;2.50;83.08;100934.50;4990046;28;20191;-74
2022/11/18 10:50:49;;;;;;;15.47;11.57;;;;;;;2.50;82.87;100935.38;4990879;28;20421;-74
2022/11/18 10:53:31;;;;;;;15.33;10.87;;;;;;;2.51;82.90;100941.28;4989783;28;20207;-74
2022/11/18 10:56:01;;;;;;;14.50;11.57;;;;;;;2.59;83.47;100932.44;4989653;28;20211;-75
2022/11/18 10:58:34;;;;;;;15.87;12.10;;;;;;;2.64;82.93;100934.44;4990345;28;20210;-73
2022/11/18 11:01:17;;;;;;;16.47;11.60;;;;;;;2.79;84.01;100936.88;4989013;28;20223;-71
2022/11/18 11:04:11;;;;;;;16.43;11.43;;;;;;;2.77;83.80;100946.94;4987505;28;20731;-74
2022/11/18 11:06:37;;;;;;;15.93;12.33;;;;;;;2.70;83.48;100933.88;4989133;28;20203;-74
2022/11/18 11:09:05;;;;;;;15.90;11.10;;;;;;;2.67;83.67;100944.69;4981223;28;20203;-74
2022/11/18 11:11:33;;;;;;;14.53;10.50;;;;;;;2.67;83.78;100943.84;4990370;28;20215;-73
2022/11/18 11:14:25;;;;;;;14.93;11.50;;;;;;;2.69;84.22;100945.66;4990162;28;20270;-73
2022/11/18 11:17:12;;;;;;;15.10;11.30;;;;;;;2.74;84.24;100951.81;4991950;28;20207;-74
2022/11/18 11:19:50;;;;;;;14.77;11.40;;;;;;;2.69;82.15;100954.88;4986309;28;20208;-74
2022/11/18 11:22:16;;;;;;;14.90;11.43;;;;;;;2.80;83.73;100958.84;4989504;28;20202;-72
2022/11/18 11:24:42;;;;;;;15.00;11.43;;;;;;;2.82;83.83;100958.16;5000017;28;20653;-74
2022/11/18 11:27:18;;;;;;;14.33;11.50;;;;;;;2.87;83.69;100955.84;4989958;28;20218;-73
2022/11/18 11:30:08;;;;;;;14.80;10.93;;;;;;;2.87;83.88;100953.31;4988318;28;20223;-73
2022/11/18 11:33:10;;;;;;;16.77;12.40;;;;;;;2.89;84.02;100959.31;4989906;28;20688;-72
2022/11/18 11:35:51;;;;;;;13.83;10.80;;;;;;;2.92;83.38;100957.81;4989048;28;20258;-74
2022/11/18 11:38:40;;;;;;;14.80;10.83;;;;;;;2.96;82.67;100964.78;4990583;28;20645;-73